الصفحة الرئيسية
METAR-TAF:

METAR-TAF

مطار :

مطار السليمانية الدولي

السليمانية, العراق

دائرة عرض: 35-33-39N, خط طول: 45-18-52E, ارتفاع: 760 متر

مراقبة الطقس الحالي

تاريخ ووقت الإصدار 50 دقيقة قبل الساعة 03:00UTC
ريح 5 عقدة من الجنوب الشرقي
درجة الحرارة 30°درجة مئوية
الرطوبة 22%
ضغط 1014 hPa
الرؤية 10 كم أو أكثر
الغيوم لا تقل 1500 م ولا وجود لمزنة ركامية السحاب الأسود

METAR: ORSU 190300Z 13005KT CAVOK 30/06 Q1014

زمن: 06:50 (03:50 UTC)

توقعات

تاريخ ووقت الإصدار 4ساعات و 50 دقيقة قبل الساعة 23:00UTC
التوقعات صالحة من19 الساعة 00 UTC إلى 19 الساعة 24 UTC
ريح 6 عقدة من الشمال الغربي
الرؤية 10 كم أو أكثر
الغيوم لا تقل 1500 م ولا وجود لمزنة ركامية السحاب الأسود
أصبح
من 19 الساعة 02 UTC إلى 19 الساعة 04 UTC
ريح 10 عقدة من الشمال الشرقي
أصبح
من 19 الساعة 10 UTC إلى 19 الساعة 12 UTC
ريح 12 عقدة من الشمال الغربي

TAF: ORSU 182300Z 1900/1924 31006KT CAVOK BECMG 1902/1904 04010KT BECMG 1910/1912 32012KT

أرصاد الطقس والتوقعات من أكثر من 4000 مطار (تقارير الطقس للمطار METAR والتنبؤ بالطقس بالمطارTAF).

المحطات المتاحة هي النقط الصفراء والحمراء على الخريطة.

حرك المؤشر فوق النقطة لمعرفة اسم المحطة.

ثم انقر لمعرفة أرصاد وتوقعات الطقس.

لتغيير الخارطة: اضغط على الأزرار الخضراء مع رمز الصليب الأسود للتكبير. على الزر الأخضر مع شرطة للتصغير، أو على الأسهم الخضراء للخرائط المجاورة.


METAR-TAF: